Time;durP1;ratioP1;P1;durP2;ratioP2;P2;SDS_P1;SDS_P2;PMS_P1;PMS_P2;Temp;Humidity;BMP_temperature;BMP_pressure;BME280_temperature;BME280_humidity;BME280_pressure;Samples;Min_cycle;Max_cycle;Signal;HPM_P1;HPM_P2
2023/06/10 00:01:48;;;;;;;7.60;6.90;;;;;;;21.18;92.78;99271.94;5057944;28;20033;-61
2023/06/10 00:04:17;;;;;;;8.63;6.97;;;;;;;21.18;92.72;99274.63;5056490;28;20041;-62
2023/06/10 00:06:48;;;;;;;8.57;6.97;;;;;;;21.14;92.63;99271.59;5056500;28;20040;-61
2023/06/10 00:09:14;;;;;;;9.60;7.10;;;;;;;21.09;92.84;99273.38;5056266;28;20311;-63
2023/06/10 00:11:40;;;;;;;8.13;6.10;;;;;;;21.01;92.93;99274.59;5056885;28;20082;-61
2023/06/10 00:14:05;;;;;;;8.52;6.72;;;;;;;20.87;93.13;99278.63;5056902;28;20326;-61
2023/06/10 00:16:31;;;;;;;8.27;6.60;;;;;;;20.80;93.32;99269.84;5057173;28;20029;-62
2023/06/10 00:19:00;;;;;;;9.05;6.63;;;;;;;20.74;93.39;99266.25;5056921;28;20051;-62
2023/06/10 00:21:37;;;;;;;10.07;7.05;;;;;;;20.72;93.38;99266.50;5055951;28;20108;-62
2023/06/10 00:24:12;;;;;;;9.70;6.38;;;;;;;20.78;93.04;99275.47;5055583;28;20041;-62
2023/06/10 00:26:41;;;;;;;7.82;6.75;;;;;;;20.83;92.26;99282.84;5053828;28;20322;-61
2023/06/10 00:29:07;;;;;;;8.15;6.40;;;;;;;20.77;91.96;99283.78;5056766;28;20068;-62
2023/06/10 00:31:37;;;;;;;10.52;6.68;;;;;;;20.68;92.49;99268.03;5056509;28;20033;-61
2023/06/10 00:34:03;;;;;;;9.52;6.80;;;;;;;20.75;92.14;99275.94;5054903;28;20049;-62
2023/06/10 00:36:28;;;;;;;9.85;6.65;;;;;;;20.86;91.22;99280.50;5056927;28;20099;-61
2023/06/10 00:38:54;;;;;;;9.23;6.07;;;;;;;20.98;90.18;99277.75;5057473;28;20049;-62
2023/06/10 00:41:19;;;;;;;8.20;6.43;;;;;;;21.11;89.14;99276.66;5056993;28;20040;-62
2023/06/10 00:43:45;;;;;;;9.38;6.65;;;;;;;21.17;88.16;99275.69;5056560;28;20044;-61
2023/06/10 00:46:12;;;;;;;6.68;5.93;;;;;;;21.23;87.85;99280.94;5056891;28;20217;-62
2023/06/10 00:48:39;;;;;;;7.03;6.32;;;;;;;21.23;87.19;99278.25;5055893;28;20359;-62
2023/06/10 00:51:05;;;;;;;7.30;6.60;;;;;;;21.30;86.91;99286.19;5055762;28;20029;-62
2023/06/10 00:53:32;;;;;;;7.88;6.80;;;;;;;21.29;86.50;99277.28;5055314;28;20060;-62
2023/06/10 00:55:58;;;;;;;8.40;6.80;;;;;;;21.30;86.66;99278.09;5055903;28;20059;-62
2023/06/10 00:58:25;;;;;;;10.02;6.28;;;;;;;21.16;86.71;99280.25;5055978;28;20044;-61
2023/06/10 01:00:51;;;;;;;7.47;6.47;;;;;;;20.98;88.19;99269.69;5056163;28;20029;-62
2023/06/10 01:03:18;;;;;;;7.60;6.40;;;;;;;20.99;88.69;99266.75;5053671;28;20045;-62
2023/06/10 01:05:49;;;;;;;9.35;6.53;;;;;;;20.99;87.13;99274.84;5055740;28;20025;-62
2023/06/10 01:09:04;;;;;;;8.57;6.25;;;;;;;20.97;86.29;99268.06;5057995;28;20265;-63
2023/06/10 01:11:41;;;;;;;7.65;6.60;;;;;;;20.87;86.26;99273.25;5045743;28;20051;-61
2023/06/10 01:14:09;;;;;;;7.82;7.03;;;;;;;20.67;87.28;99266.38;5052665;28;20037;-62
2023/06/10 01:16:36;;;;;;;8.50;6.63;;;;;;;20.63;88.03;99269.78;5056867;28;20378;-62
2023/06/10 01:19:03;;;;;;;7.68;6.55;;;;;;;20.64;87.98;99282.19;5057595;28;20079;-61
2023/06/10 01:21:29;;;;;;;7.88;5.80;;;;;;;20.64;88.22;99283.00;5054931;28;20051;-61
2023/06/10 01:23:56;;;;;;;8.45;6.53;;;;;;;20.66;88.52;99277.38;5054866;28;20029;-61
2023/06/10 01:26:25;;;;;;;7.88;6.65;;;;;;;20.66;88.53;99280.06;5055257;28;20358;-62
2023/06/10 01:29:02;;;;;;;8.32;6.60;;;;;;;20.65;88.93;99276.56;5051716;28;20044;-63
2023/06/10 01:31:48;;;;;;;7.28;6.15;;;;;;;20.70;88.87;99275.84;5055374;28;20040;-61
2023/06/10 01:34:19;;;;;;;9.70;6.63;;;;;;;20.69;88.84;99277.72;5052137;28;20047;-62
2023/06/10 01:36:47;;;;;;;9.90;6.60;;;;;;;20.69;89.11;99282.28;5055588;28;20040;-61
2023/06/10 01:39:18;;;;;;;8.00;6.00;;;;;;;20.72;88.76;99273.75;5057239;28;20273;-62
2023/06/10 01:41:44;;;;;;;8.10;6.70;;;;;;;20.64;89.33;99274.13;5055936;28;20078;-62
2023/06/10 01:44:10;;;;;;;7.20;6.50;;;;;;;20.73;88.73;99278.06;5054840;28;20107;-62
2023/06/10 01:46:36;;;;;;;9.13;7.10;;;;;;;20.77;87.94;99275.72;5054646;28;20261;-62
2023/06/10 01:49:02;;;;;;;8.30;7.10;;;;;;;20.81;86.91;99279.59;5055246;28;20039;-62
2023/06/10 01:51:27;;;;;;;8.43;6.50;;;;;;;20.72;87.35;99287.19;5054407;28;20362;-63
2023/06/10 01:53:53;;;;;;;8.30;6.22;;;;;;;20.62;86.79;99287.00;5054683;28;20049;-62
2023/06/10 01:56:19;;;;;;;7.38;6.60;;;;;;;20.34;87.89;99285.84;5054835;28;20410;-62
2023/06/10 01:58:45;;;;;;;7.07;6.38;;;;;;;20.06;88.66;99273.16;5054727;28;20037;-61
2023/06/10 02:01:11;;;;;;;6.75;6.05;;;;;;;20.20;88.59;99283.66;5056001;28;20039;-61
2023/06/10 02:03:37;;;;;;;8.02;6.28;;;;;;;20.29;88.68;99288.44;5054016;28;21331;-61
2023/06/10 02:06:03;;;;;;;9.23;6.55;;;;;;;20.30;89.25;99289.25;5054743;28;20058;-62
2023/06/10 02:08:28;;;;;;;7.90;6.70;;;;;;;20.34;89.18;99285.03;5054630;28;20100;-62
2023/06/10 02:10:54;;;;;;;7.18;6.00;;;;;;;20.39;89.15;99285.19;5054909;28;20052;-62
2023/06/10 02:13:19;;;;;;;7.30;5.82;;;;;;;20.46;87.16;99290.44;5053960;28;20044;-63
2023/06/10 02:15:45;;;;;;;7.68;6.40;;;;;;;20.48;86.87;99293.69;5055202;28;20264;-62
2023/06/10 02:18:11;;;;;;;9.90;7.00;;;;;;;20.50;85.90;99295.09;5054804;28;20032;-61
2023/06/10 02:20:37;;;;;;;6.28;5.30;;;;;;;20.46;84.13;99287.72;5054519;28;20143;-61
2023/06/10 02:23:03;;;;;;;9.77;6.30;;;;;;;20.43;83.09;99296.28;5054246;28;20041;-61
2023/06/10 02:25:29;;;;;;;6.55;5.88;;;;;;;20.35;83.80;99290.19;5054993;28;20036;-63
2023/06/10 02:27:55;;;;;;;8.18;6.30;;;;;;;20.43;85.64;99297.09;5053364;28;20102;-61
2023/06/10 02:30:20;;;;;;;10.68;6.63;;;;;;;20.47;86.68;99300.94;5054762;28;20390;-62
2023/06/10 02:32:47;;;;;;;8.25;6.40;;;;;;;20.49;87.14;99303.41;5055806;28;20061;-62
2023/06/10 02:35:14;;;;;;;8.48;6.20;;;;;;;20.50;87.07;99302.34;5056407;28;20358;-61
2023/06/10 02:37:39;;;;;;;7.93;7.07;;;;;;;20.51;87.35;99301.28;5054398;28;20044;-61
2023/06/10 02:40:06;;;;;;;7.85;6.90;;;;;;;20.55;87.09;99297.06;5054828;28;20403;-62
2023/06/10 02:42:31;;;;;;;8.07;6.32;;;;;;;20.58;86.90;99301.97;5036662;28;20045;-62
2023/06/10 02:44:57;;;;;;;9.60;7.00;;;;;;;20.61;86.59;99298.81;5054212;28;20093;-61
2023/06/10 02:47:22;;;;;;;10.32;7.22;;;;;;;20.65;86.71;99297.28;5054791;28;20035;-62
2023/06/10 02:49:48;;;;;;;7.55;6.30;;;;;;;20.62;86.54;99295.06;5053199;28;20273;-62
2023/06/10 02:52:13;;;;;;;7.88;6.05;;;;;;;20.55;86.49;99294.38;5054711;28;20265;-61
2023/06/10 02:54:39;;;;;;;8.60;5.95;;;;;;;20.54;87.19;99306.19;5053320;28;20270;-61
2023/06/10 02:57:06;;;;;;;7.47;5.78;;;;;;;20.54;86.69;99307.00;5054005;28;20037;-61
2023/06/10 02:59:31;;;;;;;7.03;6.20;;;;;;;20.52;85.56;99309.13;5053810;28;20031;-62
2023/06/10 03:01:57;;;;;;;8.73;6.95;;;;;;;20.54;85.44;99312.38;5053224;28;20238;-62
2023/06/10 03:04:23;;;;;;;8.40;6.47;;;;;;;20.61;86.09;99309.56;5053410;28;20332;-62
2023/06/10 03:06:49;;;;;;;8.93;6.60;;;;;;;20.59;86.60;99312.50;5049974;28;20041;-62
2023/06/10 03:09:14;;;;;;;7.75;6.45;;;;;;;20.58;87.40;99310.84;5054789;28;20090;-62
2023/06/10 03:11:40;;;;;;;9.00;6.90;;;;;;;20.48;87.39;99305.28;5053377;28;20037;-63
2023/06/10 03:14:05;;;;;;;10.77;6.68;;;;;;;20.59;88.16;99319.75;5054205;28;20045;-61
2023/06/10 03:16:31;;;;;;;9.40;6.95;;;;;;;20.58;88.03;99318.94;5054755;28;20094;-61
2023/06/10 03:18:56;;;;;;;8.25;6.78;;;;;;;20.59;87.68;99317.06;5054456;28;20362;-62
2023/06/10 03:21:22;;;;;;;8.45;6.72;;;;;;;20.57;88.17;99319.16;5054171;28;20344;-63
2023/06/10 03:23:47;;;;;;;8.13;6.72;;;;;;;20.45;89.35;99316.50;5054334;28;20044;-62
2023/06/10 03:26:14;;;;;;;9.38;7.05;;;;;;;20.32;91.03;99320.22;5056483;28;20036;-62
2023/06/10 03:28:40;;;;;;;8.80;7.07;;;;;;;20.07;92.15;99317.78;5057692;28;20060;-62
2023/06/10 03:31:05;;;;;;;9.55;7.13;;;;;;;19.96;92.88;99323.16;5056803;28;20414;-62
2023/06/10 03:33:31;;;;;;;12.30;7.13;;;;;;;19.82;93.24;99322.56;5056956;28;20368;-61
2023/06/10 03:35:56;;;;;;;11.88;7.55;;;;;;;19.83;94.08;99326.06;5057634;28;20048;-62
2023/06/10 03:38:22;;;;;;;10.05;8.10;;;;;;;19.74;95.17;99320.19;5057894;28;20108;-61
2023/06/10 03:40:47;;;;;;;11.48;7.82;;;;;;;19.82;95.30;99311.00;5057222;28;20100;-62
2023/06/10 03:43:13;;;;;;;11.88;7.70;;;;;;;19.90;95.28;99324.09;5055940;28;20108;-61
2023/06/10 03:45:38;;;;;;;11.25;7.50;;;;;;;20.00;94.41;99316.28;5056914;28;20437;-62
2023/06/10 03:48:04;;;;;;;10.02;6.97;;;;;;;20.11;93.85;99326.19;5056696;28;20322;-61
2023/06/10 03:50:30;;;;;;;10.95;7.45;;;;;;;20.17;92.74;99314.50;5056385;28;20040;-61
2023/06/10 03:52:55;;;;;;;11.68;7.95;;;;;;;20.16;92.35;99318.25;5055018;28;20033;-62
2023/06/10 03:55:21;;;;;;;10.02;7.47;;;;;;;20.22;92.60;99309.25;5058989;28;20033;-61
2023/06/10 03:57:48;;;;;;;9.93;7.07;;;;;;;20.21;92.95;99314.84;5058475;28;20037;-62
2023/06/10 04:00:15;;;;;;;9.00;6.95;;;;;;;20.27;92.89;99319.28;5056660;28;20259;-62
2023/06/10 04:02:48;;;;;;;19.35;8.07;;;;;;;20.37;92.38;99317.66;5056419;28;20053;-62
2023/06/10 04:05:16;;;;;;;10.30;7.18;;;;;;;20.48;92.19;99312.50;5053302;28;20068;-62
2023/06/10 04:07:42;;;;;;;10.70;7.13;;;;;;;20.55;92.02;99311.34;5057026;28;20028;-61
2023/06/10 04:10:09;;;;;;;13.00;7.32;;;;;;;20.62;91.26;99320.09;5225916;22;20070;-61
2023/06/10 04:12:35;;;;;;;10.50;7.68;;;;;;;20.61;90.65;99317.63;5019125;28;20044;-62
2023/06/10 04:15:01;;;;;;;11.20;7.60;;;;;;;20.65;90.84;99324.19;5019495;28;20352;-61
2023/06/10 04:17:27;;;;;;;9.82;7.32;;;;;;;20.73;90.70;99321.94;5019274;28;20123;-62
2023/06/10 04:19:52;;;;;;;14.80;8.73;;;;;;;20.80;91.10;99315.59;5019585;28;20105;-62
2023/06/10 04:22:18;;;;;;;11.50;8.00;;;;;;;20.82;91.81;99314.34;5018016;28;20033;-61
2023/06/10 04:24:45;;;;;;;11.52;7.50;;;;;;;20.90;91.60;99313.94;5018019;28;20311;-62
2023/06/10 04:27:10;;;;;;;9.60;8.18;;;;;;;21.00;91.51;99310.63;5020558;28;20041;-61
2023/06/10 04:29:36;;;;;;;11.60;7.82;;;;;;;21.07;91.36;99313.19;5021875;28;20315;-62
2023/06/10 04:32:01;;;;;;;10.63;8.32;;;;;;;21.13;90.57;99321.13;5019984;28;20049;-62
2023/06/10 04:34:27;;;;;;;9.00;7.47;;;;;;;21.15;90.69;99320.88;5019385;28;20230;-62
2023/06/10 04:36:53;;;;;;;15.57;7.55;;;;;;;21.14;90.92;99314.69;5019386;28;20041;-62
2023/06/10 04:39:19;;;;;;;11.15;7.35;;;;;;;21.24;90.65;99314.88;5018523;28;20029;-62
2023/06/10 04:41:45;;;;;;;13.07;7.28;;;;;;;21.31;89.02;99310.19;5019131;28;20342;-62
2023/06/10 04:44:11;;;;;;;11.23;7.05;;;;;;;21.40;87.92;99315.16;5018510;28;20100;-62
2023/06/10 04:46:37;;;;;;;8.65;7.25;;;;;;;21.45;89.40;99307.16;5018895;28;20037;-62
2023/06/10 04:49:02;;;;;;;10.68;7.93;;;;;;;21.28;92.91;99313.34;5019525;28;20046;-62
2023/06/10 04:51:28;;;;;;;13.15;8.32;;;;;;;21.22;92.70;99313.47;5018049;28;20033;-62
2023/06/10 04:53:53;;;;;;;13.77;9.07;;;;;;;21.13;95.04;99304.16;5017403;28;20038;-62
2023/06/10 04:56:20;;;;;;;12.48;8.88;;;;;;;21.07;96.03;99302.41;5018518;28;20275;-61
2023/06/10 04:58:45;;;;;;;13.25;9.82;;;;;;;21.00;96.99;99299.88;5019455;28;20037;-61
2023/06/10 05:01:11;;;;;;;12.95;9.13;;;;;;;21.01;96.37;99305.03;5019461;28;20353;-61
2023/06/10 05:03:36;;;;;;;12.10;9.07;;;;;;;21.07;96.26;99307.81;5019008;28;20048;-62
2023/06/10 05:06:01;;;;;;;12.85;9.27;;;;;;;21.13;96.11;99309.53;5019493;28;20349;-62
2023/06/10 05:08:27;;;;;;;13.95;9.23;;;;;;;21.14;96.61;99314.69;5018343;28;20231;-62
2023/06/10 05:10:52;;;;;;;12.57;9.60;;;;;;;21.13;97.20;99321.13;5017774;28;20042;-61
2023/06/10 05:13:18;;;;;;;12.25;8.93;;;;;;;21.05;98.01;99318.81;5016742;28;20041;-61
2023/06/10 05:15:44;;;;;;;12.85;9.77;;;;;;;20.90;100.00;99319.34;5019072;28;20045;-61
2023/06/10 05:18:12;;;;;;;14.15;9.13;;;;;;;20.96;99.54;99318.38;5019249;28;20042;-62
2023/06/10 05:20:38;;;;;;;14.57;8.63;;;;;;;20.95;100.00;99318.63;5017402;28;20100;-61
2023/06/10 05:23:03;;;;;;;16.75;9.13;;;;;;;20.97;100.00;99309.25;5016649;28;20424;-62
2023/06/10 05:25:30;;;;;;;13.65;8.70;;;;;;;21.04;99.65;99303.72;5017395;28;20045;-62
2023/06/10 05:27:56;;;;;;;16.05;8.60;;;;;;;21.18;95.64;99310.44;5018482;28;20026;-62
2023/06/10 05:30:21;;;;;;;20.67;11.40;;;;;;;21.27;94.06;99309.03;5018648;28;20285;-61
2023/06/10 05:32:48;;;;;;;16.67;11.10;;;;;;;21.33;91.84;99301.84;5017519;28;20242;-62
2023/06/10 05:35:14;;;;;;;17.83;12.00;;;;;;;21.17;94.31;99298.03;5016799;28;20040;-62
2023/06/10 05:37:39;;;;;;;15.55;11.82;;;;;;;21.40;93.13;99301.69;5017765;28;20046;-62
2023/06/10 05:40:06;;;;;;;14.23;10.57;;;;;;;21.42;92.55;99305.78;5000050;28;20106;-62
2023/06/10 05:42:31;;;;;;;17.00;13.73;;;;;;;21.62;91.32;99308.81;5017496;28;20042;-62
2023/06/10 05:44:56;;;;;;;15.50;11.68;;;;;;;21.74;90.04;99297.97;5018519;28;20052;-62
2023/06/10 05:47:22;;;;;;;14.65;12.30;;;;;;;21.66;89.70;99293.78;5018972;28;20581;-62
2023/06/10 05:49:49;;;;;;;16.58;11.65;;;;;;;21.82;89.56;99304.81;5018587;28;20034;-62
2023/06/10 05:52:15;;;;;;;16.48;11.80;;;;;;;21.86;88.42;99296.03;5017698;28;20029;-61
2023/06/10 05:54:40;;;;;;;17.17;14.07;;;;;;;21.86;88.48;99308.69;5016776;28;20038;-62
2023/06/10 05:57:06;;;;;;;13.20;9.10;;;;;;;21.87;87.26;99316.53;5018958;28;20033;-62
2023/06/10 05:59:31;;;;;;;12.93;9.82;;;;;;;21.85;88.07;99310.56;5018862;28;20065;-62
2023/06/10 06:01:57;;;;;;;11.88;9.30;;;;;;;21.98;87.64;99315.63;5019149;28;20156;-62
2023/06/10 06:04:22;;;;;;;12.55;10.05;;;;;;;22.06;87.27;99319.81;5018138;28;20265;-62
2023/06/10 06:06:47;;;;;;;10.38;9.02;;;;;;;22.05;86.39;99312.78;5017199;28;20555;-62
2023/06/10 06:09:13;;;;;;;12.50;10.88;;;;;;;22.17;85.97;99318.06;5017117;28;20242;-62
2023/06/10 06:11:38;;;;;;;9.25;8.30;;;;;;;22.41;85.38;99321.38;5018373;28;20251;-61
2023/06/10 06:14:04;;;;;;;12.82;9.10;;;;;;;22.43;84.27;99333.53;5018589;28;20041;-62
2023/06/10 06:16:29;;;;;;;10.73;9.45;;;;;;;22.54;82.35;99324.53;5019092;28;20083;-62
2023/06/10 06:18:55;;;;;;;13.27;11.13;;;;;;;22.59;82.17;99329.16;5018339;28;20091;-62
2023/06/10 06:21:20;;;;;;;10.82;9.13;;;;;;;22.67;80.66;99331.44;5018140;28;20041;-62
2023/06/10 06:23:46;;;;;;;13.10;9.45;;;;;;;22.81;80.96;99330.00;5017549;28;20226;-62
2023/06/10 06:26:11;;;;;;;15.10;10.40;;;;;;;22.79;79.08;99326.72;5018864;28;20088;-62
2023/06/10 06:28:37;;;;;;;10.98;8.20;;;;;;;22.96;78.68;99329.41;5018990;28;20055;-62
2023/06/10 06:31:02;;;;;;;11.20;9.85;;;;;;;23.05;78.13;99329.78;5018315;28;20147;-62
2023/06/10 06:33:28;;;;;;;10.07;8.50;;;;;;;23.09;78.10;99325.50;5016921;28;20030;-62
2023/06/10 06:35:53;;;;;;;8.95;7.85;;;;;;;23.19;76.47;99318.31;5018269;28;20126;-62
2023/06/10 06:38:18;;;;;;;11.40;8.32;;;;;;;23.29;72.87;99322.19;5018033;28;20037;-62
2023/06/10 06:40:44;;;;;;;13.80;12.48;;;;;;;23.36;73.92;99317.41;5019561;28;20038;-63
2023/06/10 06:43:09;;;;;;;21.30;16.38;;;;;;;23.45;76.48;99313.16;5017987;28;20391;-62
2023/06/10 06:45:35;;;;;;;14.15;9.60;;;;;;;23.62;76.75;99307.66;5018946;28;20041;-62
2023/06/10 06:48:00;;;;;;;12.35;7.90;;;;;;;23.56;73.21;99304.09;5019694;28;20046;-62
2023/06/10 06:50:26;;;;;;;8.65;7.43;;;;;;;23.75;72.38;99313.44;5018586;28;20045;-62
2023/06/10 06:52:51;;;;;;;8.25;7.45;;;;;;;23.85;72.02;99310.00;5018229;28;20038;-62
2023/06/10 06:55:17;;;;;;;15.60;8.45;;;;;;;24.00;70.79;99312.84;5019006;28;20029;-62
2023/06/10 06:57:42;;;;;;;12.40;9.32;;;;;;;24.16;69.54;99317.28;5019800;28;20033;-62
2023/06/10 07:00:08;;;;;;;9.13;7.05;;;;;;;24.52;66.38;99302.09;5019491;28;20355;-62
2023/06/10 07:02:35;;;;;;;9.63;7.85;;;;;;;24.90;66.43;99301.94;5019842;28;20317;-62
2023/06/10 07:05:00;;;;;;;11.23;8.82;;;;;;;25.29;62.58;99296.97;5020400;28;20037;-62
2023/06/10 07:07:26;;;;;;;10.80;7.90;;;;;;;25.39;63.85;99292.34;5020147;28;20365;-62
2023/06/10 07:09:52;;;;;;;9.73;7.10;;;;;;;25.77;60.70;99292.94;5018930;28;20042;-62
2023/06/10 07:12:18;;;;;;;10.95;7.43;;;;;;;26.06;59.71;99285.06;5025302;28;20104;-63
2023/06/10 07:14:44;;;;;;;11.52;7.30;;;;;;;26.34;61.40;99280.94;5021107;28;20026;-62
2023/06/10 07:17:10;;;;;;;8.63;6.90;;;;;;;26.44;57.68;99275.47;5020374;28;20105;-63
2023/06/10 07:19:35;;;;;;;8.02;6.47;;;;;;;26.79;57.19;99270.97;5019399;28;20030;-62
2023/06/10 07:22:01;;;;;;;7.05;5.43;;;;;;;27.10;55.45;99274.38;5019619;28;20042;-63
2023/06/10 07:24:26;;;;;;;7.88;6.00;;;;;;;27.30;54.21;99266.91;5020186;28;20103;-62
2023/06/10 07:26:52;;;;;;;8.15;5.63;;;;;;;27.43;54.76;99270.06;5019643;28;20041;-62
2023/06/10 07:29:17;;;;;;;7.13;6.03;;;;;;;27.52;53.95;99268.38;5021733;28;20042;-62
2023/06/10 07:31:42;;;;;;;7.88;5.53;;;;;;;27.78;52.51;99271.72;5022719;28;20037;-62
2023/06/10 07:34:08;;;;;;;7.38;5.85;;;;;;;27.82;52.27;99267.31;5019883;28;20048;-62
2023/06/10 07:36:33;;;;;;;6.82;5.75;;;;;;;28.10;52.40;99262.97;5021181;28;20026;-62
2023/06/10 07:38:59;;;;;;;5.75;5.15;;;;;;;28.29;50.93;99261.16;5020819;28;20046;-62
2023/06/10 07:41:25;;;;;;;7.93;5.95;;;;;;;28.40;50.62;99270.03;5022290;28;20030;-62
2023/06/10 07:43:54;;;;;;;6.10;5.40;;;;;;;28.71;49.97;99262.28;5022141;28;20029;-62
2023/06/10 07:46:21;;;;;;;7.88;5.60;;;;;;;29.00;49.26;99256.72;5022292;28;20208;-62
2023/06/10 07:48:47;;;;;;;6.22;5.28;;;;;;;29.29;49.52;99254.66;5021745;28;20042;-62
2023/06/10 07:51:12;;;;;;;8.43;5.60;;;;;;;29.34;47.98;99257.31;5021199;28;20041;-62
2023/06/10 07:53:38;;;;;;;8.70;5.35;;;;;;;29.42;48.15;99255.81;5019232;28;20049;-62
2023/06/10 07:56:03;;;;;;;6.97;5.72;;;;;;;29.47;47.21;99256.59;5020261;28;20034;-62
2023/06/10 07:58:29;;;;;;;6.43;5.47;;;;;;;29.34;46.23;99261.97;5021456;28;20390;-62
2023/06/10 08:00:55;;;;;;;8.63;5.20;;;;;;;29.12;46.62;99263.34;5021356;28;20040;-62
2023/06/10 08:03:20;;;;;;;8.63;5.30;;;;;;;28.96;47.33;99261.16;5020209;28;20044;-62
2023/06/10 08:05:45;;;;;;;9.35;5.13;;;;;;;28.95;45.90;99257.59;5021243;28;20036;-63
2023/06/10 08:08:11;;;;;;;8.27;6.75;;;;;;;28.95;46.74;99259.53;5020860;28;20250;-63
2023/06/10 08:10:36;;;;;;;11.57;6.32;;;;;;;28.72;46.87;99253.81;5019905;28;20046;-63
2023/06/10 08:13:02;;;;;;;8.65;7.78;;;;;;;28.55;48.80;99258.94;5019680;28;20033;-62
2023/06/10 08:15:27;;;;;;;6.88;5.90;;;;;;;28.66;49.32;99254.97;5019726;28;20049;-62
2023/06/10 08:17:53;;;;;;;9.68;5.47;;;;;;;29.01;48.63;99261.06;5018458;28;20034;-62
2023/06/10 08:20:18;;;;;;;9.45;5.57;;;;;;;29.33;46.58;99254.88;5018914;28;20542;-62
2023/06/10 08:22:44;;;;;;;7.80;6.03;;;;;;;29.47;46.80;99248.41;5019509;28;20370;-62
2023/06/10 08:25:09;;;;;;;6.20;5.10;;;;;;;29.80;45.00;99249.19;5020380;28;20052;-62
2023/06/10 08:27:35;;;;;;;6.05;5.43;;;;;;;29.87;43.41;99246.88;5019105;28;20045;-62
2023/06/10 08:30:00;;;;;;;6.68;5.40;;;;;;;29.57;43.85;99246.59;5021572;28;20468;-62
2023/06/10 08:32:26;;;;;;;27.52;7.75;;;;;;;29.55;43.76;99249.63;5020471;28;20040;-62
2023/06/10 08:34:51;;;;;;;8.48;6.03;;;;;;;29.29;44.54;99245.69;5020191;28;20034;-62
2023/06/10 08:37:17;;;;;;;14.40;6.15;;;;;;;29.20;44.39;99238.16;5019422;28;20037;-63
2023/06/10 08:39:42;;;;;;;22.33;5.75;;;;;;;29.14;45.53;99246.72;5019720;28;20045;-62
2023/06/10 08:42:23;;;;;;;7.65;5.60;;;;;;;29.08;44.64;99248.69;5020657;28;20033;-62
2023/06/10 08:44:54;;;;;;;8.05;6.55;;;;;;;29.30;44.42;99242.66;5020695;28;20057;-63
2023/06/10 08:47:22;;;;;;;6.72;5.43;;;;;;;29.44;45.06;99242.72;5020372;28;20341;-63
2023/06/10 08:49:47;;;;;;;6.40;4.90;;;;;;;29.71;42.39;99239.25;5019842;28;20278;-63
2023/06/10 08:52:18;;;;;;;10.82;5.05;;;;;;;29.89;39.86;99238.38;5021483;28;20038;-62
2023/06/10 08:54:54;;;;;;;5.20;4.47;;;;;;;29.78;38.67;99226.84;5019687;28;20369;-63
2023/06/10 08:57:21;;;;;;;4.70;4.20;;;;;;;29.91;39.99;99222.50;5020433;28;20053;-62
2023/06/10 08:59:48;;;;;;;7.72;4.13;;;;;;;29.88;39.93;99226.66;5019840;28;20041;-61
2023/06/10 09:02:14;;;;;;;4.57;4.15;;;;;;;29.50;38.50;99220.53;5020289;28;20041;-63
2023/06/10 09:04:43;;;;;;;5.50;4.35;;;;;;;29.30;38.70;99217.31;5020511;28;20053;-63
2023/06/10 09:07:09;;;;;;;6.55;4.28;;;;;;;29.02;40.55;99213.63;5020400;28;20240;-62
2023/06/10 09:09:35;;;;;;;6.20;4.10;;;;;;;28.72;40.19;99210.22;5019437;28;20045;-62
2023/06/10 09:12:00;;;;;;;6.97;4.05;;;;;;;28.95;42.06;99208.53;5020619;28;20049;-62
2023/06/10 09:14:26;;;;;;;6.40;4.80;;;;;;;28.93;42.12;99205.31;5020039;28;20044;-62
2023/06/10 09:16:56;;;;;;;5.75;4.85;;;;;;;28.07;42.62;99218.06;5021039;28;20029;-62
2023/06/10 09:19:22;;;;;;;16.95;7.25;;;;;;;28.25;42.38;99213.84;5019219;28;20034;-62
2023/06/10 09:21:48;;;;;;;24.55;6.15;;;;;;;28.06;42.36;99212.91;5019497;28;20049;-61
2023/06/10 09:24:14;;;;;;;5.07;4.20;;;;;;;27.95;42.28;99209.50;5018354;28;20044;-63
2023/06/10 09:26:40;;;;;;;6.07;4.57;;;;;;;27.99;42.16;99205.91;5018918;28;20037;-62
2023/06/10 09:29:11;;;;;;;4.82;4.05;;;;;;;28.13;41.53;99202.53;5018406;28;20034;-63
2023/06/10 09:31:38;;;;;;;6.50;4.25;;;;;;;28.23;40.97;99199.72;5017990;28;20362;-62
2023/06/10 09:34:13;;;;;;;4.13;3.72;;;;;;;28.32;40.40;99199.88;5019796;28;20046;-62
2023/06/10 09:36:39;;;;;;;5.45;3.63;;;;;;;28.25;39.09;99203.75;5020651;28;20045;-62
2023/06/10 09:39:12;;;;;;;6.57;4.00;;;;;;;28.17;39.93;99200.84;5019955;28;20219;-63
2023/06/10 09:41:41;;;;;;;5.13;4.05;;;;;;;28.09;40.30;99196.84;5018172;28;20046;-62
2023/06/10 09:44:15;;;;;;;13.45;4.05;;;;;;;27.99;42.17;99203.19;5016962;28;20363;-63
2023/06/10 09:46:41;;;;;;;10.45;6.90;;;;;;;28.03;45.61;99195.25;5019602;28;20045;-62
2023/06/10 09:49:07;;;;;;;7.57;5.97;;;;;;;28.16;45.97;99197.31;5018970;28;20267;-62
2023/06/10 09:51:33;;;;;;;7.78;4.05;;;;;;;28.05;48.28;99192.25;5017867;28;20052;-62
2023/06/10 09:53:59;;;;;;;5.55;4.32;;;;;;;27.93;49.37;99201.63;5016304;28;20034;-62
2023/06/10 09:56:37;;;;;;;9.20;4.32;;;;;;;27.73;50.70;99201.03;5018038;28;20038;-62
2023/06/10 09:59:06;;;;;;;11.38;4.88;;;;;;;27.76;51.96;99205.91;5018542;28;20223;-63
2023/06/10 10:01:33;;;;;;;9.20;4.85;;;;;;;27.66;50.66;99207.63;5019880;28;20101;-63
2023/06/10 10:03:58;;;;;;;10.65;4.63;;;;;;;27.49;51.38;99206.41;5020146;28;20038;-62
2023/06/10 10:06:25;;;;;;;9.10;4.60;;;;;;;27.41;53.33;99213.25;5018448;28;20040;-63
2023/06/10 10:08:51;;;;;;;6.78;4.28;;;;;;;27.38;52.76;99205.69;5019278;28;20307;-63
2023/06/10 10:11:18;;;;;;;4.97;4.07;;;;;;;27.33;52.24;99211.97;5018069;28;20069;-62
2023/06/10 10:13:49;;;;;;;6.32;4.32;;;;;;;27.26;52.03;99216.09;5019817;28;20088;-62
2023/06/10 10:16:17;;;;;;;8.48;4.75;;;;;;;27.37;52.54;99214.94;5017231;28;20251;-62
2023/06/10 10:18:55;;;;;;;5.28;4.13;;;;;;;27.33;51.23;99211.16;5017772;28;20264;-62
2023/06/10 10:21:25;;;;;;;6.32;3.85;;;;;;;27.39;51.04;99215.44;5019464;28;20045;-62
2023/06/10 10:24:03;;;;;;;6.32;4.70;;;;;;;27.46;50.75;99210.50;5019047;28;20037;-62
2023/06/10 10:26:31;;;;;;;5.75;4.28;;;;;;;27.61;49.91;99201.41;5021407;28;20038;-62
2023/06/10 10:29:22;;;;;;;6.70;4.18;;;;;;;27.62;49.49;99203.03;5019390;28;20092;-62
2023/06/10 10:31:51;;;;;;;41.55;8.43;;;;;;;27.74;47.25;99203.47;5018613;28;20042;-62
2023/06/10 10:34:21;;;;;;;7.85;4.72;;;;;;;27.83;47.30;99201.72;5019286;28;20075;-62
2023/06/10 10:36:48;;;;;;;3.78;3.35;;;;;;;27.87;42.41;99199.25;5023938;28;20037;-62
2023/06/10 10:39:15;;;;;;;6.40;3.38;;;;;;;27.70;41.35;99198.88;5021799;28;20354;-62
2023/06/10 10:41:41;;;;;;;7.03;3.85;;;;;;;27.88;43.74;99192.69;5023052;28;20049;-63
2023/06/10 10:44:11;;;;;;;4.20;3.33;;;;;;;27.94;41.77;99195.09;5023034;28;20057;-62
2023/06/10 10:47:04;;;;;;;4.43;3.05;;;;;;;27.94;41.70;99188.81;5023207;28;20030;-62
2023/06/10 10:49:30;;;;;;;3.92;3.05;;;;;;;27.90;41.07;99190.50;5021368;28;20361;-62
2023/06/10 10:52:05;;;;;;;5.30;3.65;;;;;;;27.97;41.55;99180.09;5021536;28;20048;-62
2023/06/10 10:54:40;;;;;;;4.55;3.15;;;;;;;27.93;41.92;99182.56;5022809;28;20034;-62
2023/06/10 10:57:14;;;;;;;4.70;3.53;;;;;;;28.00;41.79;99187.66;5023032;28;20046;-62
2023/06/10 10:59:48;;;;;;;6.18;3.63;;;;;;;27.90;42.39;99188.59;5026663;28;20079;-62
2023/06/10 11:02:43;;;;;;;5.88;3.70;;;;;;;27.82;40.46;99189.22;5022910;28;20034;-61
2023/06/10 11:05:11;;;;;;;4.90;3.17;;;;;;;27.82;40.68;99178.34;5020399;28;20065;-62
2023/06/10 11:07:37;;;;;;;4.30;3.35;;;;;;;27.86;40.77;99182.13;5019844;28;20101;-62
2023/06/10 11:10:02;;;;;;;14.05;4.10;;;;;;;27.88;40.22;99182.63;5020484;28;20037;-62
2023/06/10 11:12:46;;;;;;;6.78;3.92;;;;;;;27.75;44.76;99182.50;5022275;28;20036;-63
2023/06/10 11:15:18;;;;;;;;;;;;;;;27.65;45.96;99184.22;5022389;28;20069;-62
2023/06/10 11:18:12;;;;;;;13.77;4.60;;;;;;;27.34;47.93;99177.44;5023327;28;19921;-63
2023/06/10 11:20:49;;;;;;;19.52;5.75;;;;;;;27.28;48.63;99173.16;5022739;28;20042;-62
2023/06/10 11:23:27;;;;;;;6.65;3.70;;;;;;;27.08;49.61;99178.75;5022578;28;20415;-62
2023/06/10 11:26:34;;;;;;;6.57;3.47;;;;;;;26.89;51.88;99168.50;5021330;28;20041;-62
2023/06/10 11:28:59;;;;;;;6.40;3.58;;;;;;;26.80;52.84;99169.38;5019515;28;20056;-63
2023/06/10 11:31:55;;;;;;;10.95;4.32;;;;;;;26.87;53.13;99165.25;5019976;28;20030;-62